createdAt,value
2018-09-14T00:00:49.693Z,3.73
2018-09-14T00:03:17.708Z,3.80
2018-09-14T00:05:45.704Z,3.67
2018-09-14T00:08:13.716Z,3.93
2018-09-14T00:10:41.704Z,3.57
2018-09-14T00:13:09.721Z,4.33
2018-09-14T00:15:37.760Z,3.73
2018-09-14T00:18:06.073Z,3.20
2018-09-14T00:20:34.051Z,3.20
2018-09-14T00:23:02.188Z,3.30
2018-09-14T00:25:30.177Z,3.40
2018-09-14T00:27:58.197Z,3.73
2018-09-14T00:30:26.213Z,4.10
2018-09-14T00:32:54.213Z,3.53
2018-09-14T00:35:22.229Z,3.63
2018-09-14T00:37:50.229Z,3.73
2018-09-14T00:40:18.220Z,3.93
2018-09-14T00:42:46.208Z,3.17
2018-09-14T00:45:14.204Z,3.73
2018-09-14T00:47:42.218Z,3.70
2018-09-14T00:50:10.242Z,3.77
2018-09-14T00:52:38.247Z,3.57
2018-09-14T00:55:06.246Z,3.33
2018-09-14T00:57:34.297Z,3.47
2018-09-14T01:00:02.354Z,3.20
2018-09-14T01:02:30.440Z,2.83
2018-09-14T01:04:58.444Z,3.23
2018-09-14T01:07:26.434Z,3.43
2018-09-14T01:09:54.465Z,3.97
2018-09-14T01:12:22.468Z,4.07
2018-09-14T01:14:50.462Z,3.50
2018-09-14T01:17:18.584Z,2.97
2018-09-14T01:19:46.596Z,3.20
2018-09-14T01:22:14.601Z,3.40
2018-09-14T01:24:42.620Z,2.77
2018-09-14T01:27:13.646Z,3.40
2018-09-14T01:29:41.662Z,3.30
2018-09-14T01:32:09.680Z,2.90
2018-09-14T01:34:37.713Z,2.70
2018-09-14T01:37:05.701Z,2.90
2018-09-14T01:39:33.698Z,3.63
2018-09-14T01:42:01.703Z,3.07
2018-09-14T01:44:29.781Z,2.80
2018-09-14T01:46:57.769Z,3.13
2018-09-14T01:49:25.776Z,3.53
2018-09-14T01:51:53.776Z,3.40
2018-09-14T01:54:21.788Z,2.87
2018-09-14T01:56:49.770Z,2.73
2018-09-14T01:59:17.760Z,3.13
2018-09-14T02:01:45.808Z,4.27
2018-09-14T02:04:13.798Z,3.80
2018-09-14T02:06:41.823Z,3.63
2018-09-14T02:09:10.761Z,4.97
2018-09-14T02:11:38.818Z,7.33
2018-09-14T02:14:07.000Z,8.40
2018-09-14T02:16:35.399Z,5.77
2018-09-14T02:19:03.548Z,6.80
2018-09-14T02:21:31.724Z,9.83
2018-09-14T02:23:59.749Z,8.47
2018-09-14T02:26:27.856Z,7.77
2018-09-14T02:28:55.933Z,8.83
2018-09-14T02:31:23.922Z,8.40
2018-09-14T02:33:51.972Z,9.00
2018-09-14T02:36:19.972Z,8.87
2018-09-14T02:38:48.036Z,8.97
2018-09-14T02:41:16.038Z,11.10
2018-09-14T02:43:44.031Z,9.80
2018-09-14T02:46:12.073Z,9.90
2018-09-14T02:48:40.129Z,7.70
2018-09-14T02:51:08.173Z,7.30
2018-09-14T02:53:36.189Z,8.00
2018-09-14T02:56:04.279Z,8.07
2018-09-14T02:58:32.277Z,10.13
2018-09-14T03:01:00.280Z,9.43
2018-09-14T03:03:28.283Z,9.80
2018-09-14T03:05:56.334Z,9.17
2018-09-14T03:08:24.397Z,6.60
2018-09-14T03:10:52.416Z,6.30
2018-09-14T03:13:20.460Z,7.47
2018-09-14T03:15:48.901Z,7.17
2018-09-14T03:18:16.909Z,7.93
2018-09-14T03:20:44.958Z,6.90
2018-09-14T03:23:12.982Z,10.50
2018-09-14T03:25:41.122Z,10.77
2018-09-14T03:28:09.121Z,7.73
2018-09-14T03:30:37.237Z,7.93
2018-09-14T03:33:05.256Z,9.47
2018-09-14T03:35:33.281Z,9.00
2018-09-14T03:38:01.307Z,9.00
2018-09-14T03:40:29.327Z,7.57
2018-09-14T03:42:57.341Z,7.80
2018-09-14T03:45:25.355Z,8.43
2018-09-14T03:47:53.386Z,10.43
2018-09-14T03:50:21.461Z,8.47
2018-09-14T03:52:49.494Z,9.00
2018-09-14T03:55:17.516Z,9.87
2018-09-14T03:57:45.565Z,8.37
2018-09-14T04:00:13.617Z,9.10
2018-09-14T04:02:41.643Z,9.37
2018-09-14T04:05:09.682Z,6.67
2018-09-14T04:07:37.755Z,7.53
2018-09-14T04:10:05.933Z,7.00
2018-09-14T04:12:33.941Z,7.27
2018-09-14T04:15:01.940Z,7.20
2018-09-14T04:17:29.950Z,7.30
2018-09-14T04:19:57.954Z,8.50
2018-09-14T04:22:26.100Z,7.10
2018-09-14T04:24:54.165Z,8.90
2018-09-14T04:27:22.170Z,7.53
2018-09-14T04:29:50.192Z,8.43
2018-09-14T04:32:18.195Z,8.90
2018-09-14T04:34:46.189Z,8.90
2018-09-14T04:37:14.389Z,8.83
2018-09-14T04:39:42.437Z,9.50
2018-09-14T04:42:10.468Z,7.93
2018-09-14T04:44:38.520Z,8.47
2018-09-14T04:47:06.608Z,7.70
2018-09-14T04:49:34.699Z,7.90
2018-09-14T04:52:02.727Z,8.70
2018-09-14T04:54:30.723Z,7.53
2018-09-14T04:56:58.739Z,8.17
2018-09-14T04:59:26.828Z,8.47
2018-09-14T05:01:54.852Z,8.80
2018-09-14T05:04:23.868Z,7.53
2018-09-14T05:06:52.353Z,6.43
2018-09-14T05:09:20.364Z,6.20
2018-09-14T05:11:48.465Z,6.27
2018-09-14T05:14:16.557Z,8.70
2018-09-14T05:16:44.519Z,8.63
2018-09-14T05:19:12.540Z,8.47
2018-09-14T05:21:40.593Z,8.40
2018-09-14T05:24:08.872Z,6.57
2018-09-14T05:26:36.967Z,6.53
2018-09-14T05:29:05.266Z,6.77
2018-09-14T05:31:33.373Z,7.20
2018-09-14T05:34:01.422Z,6.57
2018-09-14T05:36:29.417Z,6.40
2018-09-14T05:38:57.424Z,5.73
2018-09-14T05:41:25.449Z,5.23
2018-09-14T05:43:53.481Z,8.60
2018-09-14T05:46:21.544Z,7.10
2018-09-14T05:48:49.570Z,6.20
2018-09-14T05:51:17.576Z,7.63
2018-09-14T05:53:45.596Z,8.77
2018-09-14T05:56:13.602Z,10.00
2018-09-14T05:58:41.677Z,10.90
2018-09-14T06:01:09.685Z,8.23
2018-09-14T06:03:37.832Z,8.53
2018-09-14T06:06:05.852Z,5.50
2018-09-14T06:08:33.929Z,6.10
2018-09-14T06:11:01.992Z,7.10
2018-09-14T06:13:30.089Z,8.57
2018-09-14T06:15:58.140Z,5.97
2018-09-14T06:18:26.161Z,7.33
2018-09-14T06:20:54.249Z,7.77
2018-09-14T06:23:22.447Z,6.47
2018-09-14T06:25:50.482Z,8.40
2018-09-14T06:28:18.549Z,6.77
2018-09-14T06:30:46.549Z,6.93
2018-09-14T06:33:14.564Z,7.97
2018-09-14T06:35:42.634Z,4.67
2018-09-14T06:38:10.763Z,7.77
2018-09-14T06:40:38.670Z,7.47
2018-09-14T06:43:06.692Z,6.93
2018-09-14T06:45:34.688Z,8.70
2018-09-14T06:48:02.743Z,10.33
2018-09-14T06:50:30.725Z,6.67
2018-09-14T06:52:58.805Z,8.20
2018-09-14T06:55:26.798Z,7.93
2018-09-14T06:57:54.816Z,9.43
2018-09-14T07:00:22.957Z,8.93
2018-09-14T07:02:50.908Z,7.57
2018-09-14T07:05:18.944Z,10.50
2018-09-14T07:07:46.968Z,9.43
2018-09-14T07:10:15.028Z,11.67
2018-09-14T07:12:43.070Z,11.83
2018-09-14T07:15:11.097Z,9.73
2018-09-14T07:17:39.316Z,9.50
2018-09-14T07:20:07.308Z,8.67
2018-09-14T07:22:35.348Z,9.83
2018-09-14T07:25:04.281Z,9.23
2018-09-14T07:27:32.273Z,9.50
2018-09-14T07:30:00.345Z,10.90
2018-09-14T07:32:28.391Z,10.67
2018-09-14T07:34:56.404Z,10.63
2018-09-14T07:37:24.511Z,11.17
2018-09-14T07:39:52.509Z,11.23
2018-09-14T07:42:20.547Z,9.37
2018-09-14T07:44:48.537Z,10.03
2018-09-14T07:47:16.557Z,9.50
2018-09-14T07:49:44.612Z,11.70
2018-09-14T07:52:12.656Z,12.40
2018-09-14T07:54:40.668Z,12.10
2018-09-14T07:57:08.689Z,12.23
2018-09-14T07:59:36.776Z,12.33
2018-09-14T08:02:04.922Z,14.60
2018-09-14T08:04:32.949Z,15.47
2018-09-14T08:07:01.075Z,15.43
2018-09-14T08:09:29.192Z,13.30
2018-09-14T08:11:57.498Z,14.43
2018-09-14T08:14:25.433Z,13.90
2018-09-14T08:16:53.473Z,14.70
2018-09-14T08:19:21.540Z,15.33
2018-09-14T08:21:49.909Z,14.80
2018-09-14T08:24:17.833Z,15.20
2018-09-14T08:26:45.914Z,14.90
2018-09-14T08:29:13.903Z,14.67
2018-09-14T08:31:41.925Z,14.83
2018-09-14T08:34:09.972Z,15.03
2018-09-14T08:36:38.056Z,14.17
2018-09-14T08:39:08.693Z,15.00
2018-09-14T08:41:36.755Z,13.50
2018-09-14T08:44:04.813Z,14.40
2018-09-14T08:46:32.915Z,15.03
2018-09-14T08:49:00.965Z,12.70
2018-09-14T08:51:29.012Z,14.00
2018-09-14T08:53:57.076Z,15.10
2018-09-14T08:56:25.323Z,14.57
2018-09-14T08:58:53.357Z,15.90
2018-09-14T09:01:21.404Z,16.47
2018-09-14T09:03:49.779Z,16.40
2018-09-14T09:06:17.733Z,16.20
2018-09-14T09:08:45.884Z,14.90
2018-09-14T09:11:13.960Z,15.80
2018-09-14T09:13:42.038Z,16.80
2018-09-14T09:16:10.081Z,18.33
2018-09-14T09:18:38.129Z,18.23
2018-09-14T09:21:06.195Z,17.90
2018-09-14T09:23:34.353Z,17.13
2018-09-14T09:26:02.344Z,20.47
2018-09-14T09:28:30.556Z,17.57
2018-09-14T09:30:58.584Z,18.10
2018-09-14T09:33:26.732Z,18.47
2018-09-14T09:35:54.970Z,18.40
2018-09-14T09:38:23.006Z,16.50
2018-09-14T09:40:51.119Z,15.07
2018-09-14T09:43:19.149Z,13.00
2018-09-14T09:45:47.345Z,11.83
2018-09-14T09:48:15.342Z,12.47
2018-09-14T09:50:43.482Z,13.67
2018-09-14T09:53:11.455Z,11.73
2018-09-14T09:55:39.543Z,14.70
2018-09-14T09:58:08.065Z,15.57
2018-09-14T10:00:41.535Z,15.00
2018-09-14T10:03:15.108Z,16.40
2018-09-14T10:05:48.804Z,17.80
2018-09-14T10:08:16.812Z,16.50
2018-09-14T10:10:45.912Z,17.23
2018-09-14T10:13:13.969Z,20.30
2018-09-14T10:15:42.166Z,18.20
2018-09-14T10:18:10.208Z,19.93
2018-09-14T10:20:38.347Z,21.90
2018-09-14T10:23:06.466Z,19.50
2018-09-14T10:25:34.537Z,21.70
2018-09-14T10:28:02.695Z,21.67
2018-09-14T10:30:30.756Z,20.93
2018-09-14T10:32:58.761Z,19.10
2018-09-14T10:35:26.910Z,19.70
2018-09-14T10:37:55.268Z,21.27
2018-09-14T10:40:23.396Z,18.13
2018-09-14T10:42:51.439Z,19.00
2018-09-14T10:45:19.721Z,17.47
2018-09-14T10:47:47.988Z,19.00
2018-09-14T10:50:16.049Z,18.27
2018-09-14T10:52:44.160Z,19.40
2018-09-14T10:55:12.239Z,19.47
2018-09-14T10:57:40.224Z,18.77
2018-09-14T11:00:08.276Z,20.47
2018-09-14T11:02:36.288Z,19.63
2018-09-14T11:05:04.309Z,18.90
2018-09-14T11:07:32.482Z,18.10
2018-09-14T11:10:00.569Z,19.50
2018-09-14T11:12:28.622Z,19.70
2018-09-14T11:14:56.620Z,18.10
2018-09-14T11:17:24.641Z,19.30
2018-09-14T11:19:52.720Z,20.83
2018-09-14T11:22:20.750Z,21.97
2018-09-14T11:24:48.922Z,19.97
2018-09-14T11:27:16.829Z,20.47
2018-09-14T11:29:44.864Z,21.83
2018-09-14T11:32:12.936Z,18.23
2018-09-14T11:34:40.922Z,18.13
2018-09-14T11:37:08.981Z,19.10
2018-09-14T11:39:37.020Z,17.43
2018-09-14T11:42:05.115Z,20.73
2018-09-14T11:44:33.180Z,17.07
2018-09-14T11:47:01.307Z,18.33
2018-09-14T11:49:29.312Z,15.60
2018-09-14T11:51:57.397Z,14.90
2018-09-14T11:54:25.564Z,14.30
2018-09-14T11:56:53.564Z,16.53
2018-09-14T11:59:21.678Z,15.57
2018-09-14T12:01:49.766Z,13.60
2018-09-14T12:04:17.867Z,13.43
2018-09-14T12:06:45.893Z,13.33
2018-09-14T12:09:13.919Z,10.57
2018-09-14T12:11:42.167Z,9.80
2018-09-14T12:14:10.749Z,7.30
2018-09-14T12:16:38.816Z,7.43
2018-09-14T12:19:06.986Z,7.80
2018-09-14T12:21:34.993Z,7.77
2018-09-14T12:24:03.033Z,6.10
2018-09-14T12:26:31.069Z,6.73
2018-09-14T12:28:59.126Z,7.27
2018-09-14T12:31:27.192Z,5.00
2018-09-14T12:33:55.229Z,7.63
2018-09-14T12:36:23.318Z,5.57
2018-09-14T12:38:51.412Z,6.83
2018-09-14T12:41:19.461Z,6.43
2018-09-14T12:43:47.597Z,6.17
2018-09-14T12:46:15.588Z,6.00
2018-09-14T12:48:44.660Z,7.00
2018-09-14T12:51:12.645Z,6.77
2018-09-14T12:53:40.674Z,7.47
2018-09-14T12:56:08.718Z,6.60
2018-09-14T12:58:36.772Z,8.60
2018-09-14T13:01:04.772Z,7.53
2018-09-14T13:03:32.830Z,6.37
2018-09-14T13:06:00.839Z,6.80
2018-09-14T13:08:28.909Z,7.13
2018-09-14T13:10:56.965Z,7.87
2018-09-14T13:13:25.601Z,7.80
2018-09-14T13:15:53.946Z,7.73
2018-09-14T13:18:21.996Z,8.00
2018-09-14T13:20:50.169Z,6.77
2018-09-14T13:23:18.279Z,7.30
2018-09-14T13:25:46.328Z,6.03
2018-09-14T13:28:14.339Z,7.93
2018-09-14T13:30:42.456Z,8.10
2018-09-14T13:33:10.473Z,6.50
2018-09-14T13:35:38.519Z,5.70
2018-09-14T13:38:06.748Z,7.03
2018-09-14T13:40:34.782Z,5.93
2018-09-14T13:43:02.819Z,5.77
2018-09-14T13:45:30.882Z,5.87
2018-09-14T13:47:59.071Z,6.27
2018-09-14T13:50:27.113Z,6.67
2018-09-14T13:52:55.206Z,6.77
2018-09-14T13:55:23.175Z,7.30
2018-09-14T13:57:51.261Z,6.27
2018-09-14T14:00:19.307Z,5.70
2018-09-14T14:02:47.381Z,6.27
2018-09-14T14:05:15.419Z,6.50
2018-09-14T14:07:43.460Z,6.50
2018-09-14T14:10:11.567Z,6.30
2018-09-14T14:12:39.695Z,4.90
2018-09-14T14:15:07.707Z,5.60
2018-09-14T14:17:37.062Z,4.80
2018-09-14T14:20:04.916Z,5.47
2018-09-14T14:22:33.033Z,6.07
2018-09-14T14:25:01.080Z,5.93
2018-09-14T14:27:29.408Z,5.00
2018-09-14T14:29:57.445Z,6.70
2018-09-14T14:32:25.629Z,6.67
2018-09-14T14:34:53.761Z,6.00
2018-09-14T14:37:21.847Z,5.17
2018-09-14T14:39:49.866Z,5.60
2018-09-14T14:42:17.929Z,6.07
2018-09-14T14:44:46.045Z,5.30
2018-09-14T14:47:14.240Z,5.87
2018-09-14T14:49:42.440Z,5.87
2018-09-14T14:52:10.556Z,4.30
2018-09-14T14:54:38.751Z,3.90
2018-09-14T14:57:06.835Z,4.57
2018-09-14T14:59:35.061Z,5.13
2018-09-14T15:02:03.205Z,4.50
2018-09-14T15:04:31.404Z,4.23
2018-09-14T15:06:59.449Z,5.33
2018-09-14T15:09:27.484Z,4.90
2018-09-14T15:11:55.511Z,4.60
2018-09-14T15:14:23.632Z,5.27
2018-09-14T15:16:51.752Z,4.40
2018-09-14T15:19:19.920Z,4.83
2018-09-14T15:21:47.965Z,4.63
2018-09-14T15:24:15.968Z,4.10
2018-09-14T15:26:44.013Z,4.77
2018-09-14T15:29:12.092Z,4.03
2018-09-14T15:31:40.109Z,4.30
2018-09-14T15:34:08.184Z,4.90
2018-09-14T15:36:36.235Z,4.87
2018-09-14T15:39:09.705Z,4.70
2018-09-14T15:41:37.773Z,4.73
2018-09-14T15:44:05.860Z,4.53
2018-09-14T15:46:33.961Z,4.57
2018-09-14T15:49:02.016Z,4.40
2018-09-14T15:51:30.241Z,4.50
2018-09-14T15:53:58.288Z,5.00
2018-09-14T15:56:26.626Z,6.03
2018-09-14T15:58:54.756Z,5.10
2018-09-14T16:01:22.898Z,5.00
2018-09-14T16:03:51.034Z,5.33
2018-09-14T16:06:19.135Z,6.10
2018-09-14T16:08:47.209Z,5.50
2018-09-14T16:11:16.341Z,4.80
2018-09-14T16:13:45.306Z,5.20
2018-09-14T16:16:13.378Z,5.00
2018-09-14T16:18:41.417Z,5.97
2018-09-14T16:21:09.437Z,4.87
2018-09-14T16:23:37.436Z,5.10
2018-09-14T16:26:05.462Z,4.87
2018-09-14T16:28:33.523Z,5.30
2018-09-14T16:31:01.609Z,4.30
2018-09-14T16:33:29.632Z,5.37
2018-09-14T16:35:57.711Z,5.20
2018-09-14T16:38:25.845Z,4.63
2018-09-14T16:40:53.877Z,5.63
2018-09-14T16:43:21.887Z,6.30
2018-09-14T16:45:49.946Z,5.20
2018-09-14T16:48:17.946Z,4.97
2018-09-14T16:50:45.974Z,5.33
2018-09-14T16:53:14.024Z,5.00
2018-09-14T16:55:42.044Z,5.10
2018-09-14T16:58:10.121Z,5.10
2018-09-14T17:00:38.130Z,5.37
2018-09-14T17:03:06.249Z,4.67
2018-09-14T17:05:34.240Z,5.10
2018-09-14T17:08:02.267Z,5.00
2018-09-14T17:10:30.282Z,4.60
2018-09-14T17:12:58.321Z,6.03
2018-09-14T17:15:26.339Z,4.73
2018-09-14T17:17:54.373Z,4.80
2018-09-14T17:20:22.445Z,5.60
2018-09-14T17:22:50.487Z,12.73
2018-09-14T17:25:18.516Z,13.80
2018-09-14T17:27:46.561Z,7.83
2018-09-14T17:30:14.578Z,5.13
2018-09-14T17:32:42.627Z,5.43
2018-09-14T17:35:10.668Z,5.93
2018-09-14T17:37:38.730Z,5.73
2018-09-14T17:40:06.745Z,4.63
2018-09-14T17:42:34.751Z,4.80
2018-09-14T17:45:02.790Z,4.97
2018-09-14T17:47:31.961Z,4.80
2018-09-14T17:50:00.066Z,5.00
2018-09-14T17:52:28.201Z,5.57
2018-09-14T17:54:56.278Z,5.60
2018-09-14T17:57:24.417Z,6.03
2018-09-14T17:59:52.566Z,5.60
2018-09-14T18:02:20.643Z,5.67
2018-09-14T18:04:48.879Z,4.93
2018-09-14T18:07:16.887Z,4.73
2018-09-14T18:09:45.297Z,4.97
2018-09-14T18:12:13.324Z,4.53
2018-09-14T18:14:41.444Z,5.30
2018-09-14T18:17:09.501Z,4.97
2018-09-14T18:19:37.525Z,5.40
2018-09-14T18:22:05.590Z,5.13
2018-09-14T18:24:34.020Z,5.20
2018-09-14T18:27:02.039Z,5.73
2018-09-14T18:29:30.073Z,5.33
2018-09-14T18:31:58.081Z,5.23
2018-09-14T18:34:26.119Z,4.50
2018-09-14T18:36:54.427Z,5.37
2018-09-14T18:39:22.616Z,5.73
2018-09-14T18:41:50.933Z,5.00
2018-09-14T18:44:19.178Z,5.60
2018-09-14T18:46:47.434Z,5.60
2018-09-14T18:49:15.500Z,5.77
2018-09-14T18:51:43.569Z,5.53
2018-09-14T18:54:11.643Z,5.10
2018-09-14T18:56:39.701Z,5.10
2018-09-14T18:59:07.720Z,5.20
2018-09-14T19:01:35.749Z,5.30
2018-09-14T19:04:03.847Z,6.13
2018-09-14T19:06:31.960Z,5.73
2018-09-14T19:09:00.044Z,5.87
2018-09-14T19:11:28.121Z,5.13
2018-09-14T19:13:56.189Z,5.40
2018-09-14T19:16:24.247Z,5.73
2018-09-14T19:18:52.528Z,5.37
2018-09-14T19:21:20.589Z,5.50
2018-09-14T19:23:48.613Z,4.90
2018-09-14T19:26:16.685Z,5.00
2018-09-14T19:28:44.732Z,4.90
2018-09-14T19:31:12.762Z,5.67
2018-09-14T19:33:40.754Z,4.97
2018-09-14T19:36:08.808Z,6.00
2018-09-14T19:38:36.848Z,5.43
2018-09-14T19:41:04.853Z,5.67
2018-09-14T19:43:32.909Z,5.60
2018-09-14T19:46:00.928Z,5.50
2018-09-14T19:48:28.973Z,6.00
2018-09-14T19:50:57.063Z,6.27
2018-09-14T19:53:25.070Z,5.90
2018-09-14T19:55:53.080Z,5.97
2018-09-14T19:58:21.166Z,5.30
2018-09-14T20:00:49.792Z,6.53
2018-09-14T20:03:17.889Z,5.47
2018-09-14T20:05:45.937Z,6.07
2018-09-14T20:08:13.993Z,5.80
2018-09-14T20:10:42.169Z,6.27
2018-09-14T20:13:10.197Z,5.77
2018-09-14T20:15:38.300Z,6.23
2018-09-14T20:18:06.444Z,7.30
2018-09-14T20:20:34.554Z,6.57
2018-09-14T20:23:02.578Z,5.63
2018-09-14T20:25:30.643Z,7.40
2018-09-14T20:27:58.660Z,6.43
2018-09-14T20:30:26.716Z,6.57
2018-09-14T20:32:54.743Z,6.50
2018-09-14T20:35:22.914Z,7.00
2018-09-14T20:37:57.913Z,7.27
2018-09-14T20:40:25.970Z,7.50
2018-09-14T20:42:54.084Z,7.23
2018-09-14T20:45:22.056Z,7.57
2018-09-14T20:47:50.057Z,7.63
2018-09-14T20:50:18.237Z,6.70
2018-09-14T20:52:46.234Z,7.23
2018-09-14T20:55:14.276Z,7.30
2018-09-14T20:57:42.329Z,8.30
2018-09-14T21:00:10.421Z,7.70
2018-09-14T21:02:38.505Z,7.30
2018-09-14T21:05:06.612Z,7.90
2018-09-14T21:07:34.647Z,7.40
2018-09-14T21:10:02.752Z,8.57
2018-09-14T21:12:30.801Z,8.93
2018-09-14T21:14:58.880Z,8.50
2018-09-14T21:17:26.969Z,8.17
2018-09-14T21:19:54.988Z,8.60
2018-09-14T21:22:23.192Z,9.73
2018-09-14T21:24:51.226Z,8.40
2018-09-14T21:27:19.244Z,8.43
2018-09-14T21:29:47.277Z,9.20
2018-09-14T21:32:15.338Z,9.20
2018-09-14T21:34:43.448Z,10.27
2018-09-14T21:37:11.511Z,10.80
2018-09-14T21:39:39.510Z,10.77
2018-09-14T21:42:07.525Z,9.80
2018-09-14T21:44:35.580Z,10.70
2018-09-14T21:47:03.607Z,11.80
2018-09-14T21:49:31.699Z,10.70
2018-09-14T21:51:59.965Z,10.63
2018-09-14T21:54:27.979Z,10.60
2018-09-14T21:56:55.988Z,12.40
2018-09-14T21:59:24.061Z,11.80
2018-09-14T22:01:52.112Z,11.75
2018-09-14T22:04:20.176Z,12.50
2018-09-14T22:06:48.275Z,11.97
2018-09-14T22:09:16.316Z,11.93
2018-09-14T22:11:44.352Z,10.73
2018-09-14T22:14:12.353Z,11.43
2018-09-14T22:16:40.376Z,11.77
2018-09-14T22:19:08.433Z,11.93
2018-09-14T22:21:37.721Z,11.20
2018-09-14T22:24:05.715Z,11.40
2018-09-14T22:26:33.713Z,12.10
2018-09-14T22:29:01.851Z,10.70
2018-09-14T22:31:29.865Z,11.13
2018-09-14T22:33:57.889Z,10.70
2018-09-14T22:36:25.912Z,11.47
2018-09-14T22:38:53.992Z,10.33
2018-09-14T22:41:22.130Z,10.63
2018-09-14T22:43:50.162Z,10.87
2018-09-14T22:46:18.181Z,11.53
2018-09-14T22:48:46.352Z,10.87
2018-09-14T22:51:14.420Z,10.90
2018-09-14T22:53:42.476Z,10.37
2018-09-14T22:56:10.502Z,10.00
2018-09-14T22:58:38.710Z,10.47
2018-09-14T23:01:13.064Z,10.90
2018-09-14T23:03:41.158Z,11.20
2018-09-14T23:06:09.187Z,9.60
2018-09-14T23:08:37.253Z,10.90
2018-09-14T23:11:05.328Z,12.07
2018-09-14T23:13:33.442Z,11.60
2018-09-14T23:16:01.864Z,12.17
2018-09-14T23:18:30.853Z,11.90
2018-09-14T23:20:59.376Z,11.43
2018-09-14T23:23:27.560Z,12.60
2018-09-14T23:25:58.508Z,11.50
2018-09-14T23:28:26.650Z,12.07
2018-09-14T23:30:54.640Z,12.70
2018-09-14T23:33:22.628Z,11.60
2018-09-14T23:35:50.753Z,12.93
2018-09-14T23:38:18.761Z,13.40
2018-09-14T23:40:46.848Z,12.23
2018-09-14T23:43:14.852Z,12.33
2018-09-14T23:45:42.880Z,12.00
2018-09-14T23:48:11.000Z,12.10
2018-09-14T23:50:39.037Z,10.90
2018-09-14T23:53:07.077Z,11.07
2018-09-14T23:55:38.859Z,10.20
2018-09-14T23:58:06.840Z,10.03
